createdAt,value
2017-09-01T00:00:44.723Z,4.10
2017-09-01T00:01:44.441Z,4.20
2017-09-01T00:02:44.496Z,4.20
2017-09-01T00:03:44.517Z,3.50
2017-09-01T00:04:44.554Z,3.50
2017-09-01T00:05:44.586Z,3.60
2017-09-01T00:06:44.895Z,3.50
2017-09-01T00:07:44.674Z,3.90
2017-09-01T00:08:44.704Z,3.30
2017-09-01T00:09:44.727Z,3.50
2017-09-01T00:10:44.787Z,3.50
2017-09-01T00:11:44.851Z,3.70
2017-09-01T00:12:45.153Z,3.50
2017-09-01T00:13:44.887Z,3.70
2017-09-01T00:14:44.926Z,3.70
2017-09-01T00:15:44.963Z,4.20
2017-09-01T00:16:45.056Z,3.50
2017-09-01T00:17:45.021Z,3.80
2017-09-01T00:18:45.323Z,3.80
2017-09-01T00:19:45.087Z,4.00
2017-09-01T00:20:45.129Z,4.60
2017-09-01T00:21:45.177Z,3.70
2017-09-01T00:22:45.299Z,3.70
2017-09-01T00:23:45.232Z,3.80
2017-09-01T00:24:45.590Z,4.00
2017-09-01T00:25:45.323Z,3.60
2017-09-01T00:26:45.341Z,3.80
2017-09-01T00:27:45.399Z,3.70
2017-09-01T00:28:45.415Z,3.60
2017-09-01T00:29:45.469Z,3.90
2017-09-01T00:30:45.821Z,3.50
2017-09-01T00:31:45.545Z,3.90
2017-09-01T00:32:45.558Z,3.90
2017-09-01T00:33:45.593Z,3.70
2017-09-01T00:34:45.648Z,3.50
2017-09-01T00:35:45.669Z,4.00
2017-09-01T00:36:46.027Z,3.80
2017-09-01T00:37:45.754Z,3.50
2017-09-01T00:38:45.924Z,3.70
2017-09-01T00:39:45.831Z,3.60
2017-09-01T00:40:45.870Z,3.40
2017-09-01T00:41:45.884Z,4.20
2017-09-01T00:42:46.186Z,3.50
2017-09-01T00:43:45.971Z,3.60
2017-09-01T00:44:46.059Z,3.80
2017-09-01T00:45:46.051Z,3.70
2017-09-01T00:46:46.088Z,3.70
2017-09-01T00:47:46.097Z,3.60
2017-09-01T00:48:46.400Z,3.70
2017-09-01T00:49:46.169Z,3.70
2017-09-01T00:50:46.304Z,3.60
2017-09-01T00:51:46.247Z,3.60
2017-09-01T00:52:46.302Z,3.80
2017-09-01T00:53:46.314Z,3.90
2017-09-01T00:54:46.667Z,3.70
2017-09-01T00:55:46.390Z,3.80
2017-09-01T00:56:46.474Z,3.80
2017-09-01T00:57:46.457Z,3.90
2017-09-01T00:58:46.502Z,3.70
2017-09-01T00:59:46.547Z,3.90
2017-09-01T01:00:46.833Z,3.60
2017-09-01T01:01:46.606Z,3.70
2017-09-01T01:02:46.664Z,3.70
2017-09-01T01:03:46.683Z,3.70
2017-09-01T01:04:46.717Z,3.50
2017-09-01T01:05:46.798Z,3.50
2017-09-01T01:06:47.099Z,3.80
2017-09-01T01:07:46.833Z,3.60
2017-09-01T01:08:46.853Z,3.50
2017-09-01T01:09:46.992Z,3.60
2017-09-01T01:10:46.947Z,4.00
2017-09-01T01:11:46.977Z,3.70
2017-09-01T01:12:47.248Z,3.70
2017-09-01T01:13:47.037Z,3.90
2017-09-01T01:14:47.071Z,3.80
2017-09-01T01:15:47.139Z,3.90
2017-09-01T01:16:47.164Z,4.00
2017-09-01T01:17:47.206Z,3.70
2017-09-01T01:18:47.461Z,4.20
2017-09-01T01:19:47.270Z,3.40
2017-09-01T01:20:47.303Z,3.90
2017-09-01T01:21:47.406Z,3.60
2017-09-01T01:22:47.357Z,3.80
2017-09-01T01:23:47.408Z,3.30
2017-09-01T01:24:47.698Z,3.90
2017-09-01T01:25:47.462Z,3.40
2017-09-01T01:26:47.518Z,3.70
2017-09-01T01:27:47.536Z,3.60
2017-09-01T01:28:47.590Z,3.40
2017-09-01T01:29:47.610Z,3.80
2017-09-01T01:30:47.643Z,3.80
2017-09-01T01:31:47.999Z,3.80
2017-09-01T01:32:47.713Z,3.50
2017-09-01T01:33:47.805Z,3.80
2017-09-01T01:34:47.788Z,4.00
2017-09-01T01:35:47.841Z,3.90
2017-09-01T01:36:47.858Z,3.60
2017-09-01T01:37:47.916Z,3.70
2017-09-01T01:38:48.247Z,3.90
2017-09-01T01:39:48.067Z,3.70
2017-09-01T01:40:48.007Z,3.30
2017-09-01T01:41:48.107Z,3.60
2017-09-01T01:42:48.073Z,3.60
2017-09-01T01:43:48.139Z,4.00
2017-09-01T01:44:48.402Z,3.70
2017-09-01T01:45:48.501Z,3.90
2017-09-01T01:46:48.239Z,4.00
2017-09-01T01:47:48.258Z,3.50
2017-09-01T01:48:48.290Z,3.60
2017-09-01T01:49:48.327Z,4.00
2017-09-01T01:50:48.362Z,3.50
2017-09-01T01:51:48.411Z,3.60
2017-09-01T01:52:48.734Z,3.80
2017-09-01T01:53:48.470Z,3.80
2017-09-01T01:54:48.507Z,3.50
2017-09-01T01:55:48.541Z,4.10
2017-09-01T01:56:48.596Z,3.60
2017-09-01T01:57:48.614Z,3.70
2017-09-01T01:58:48.670Z,3.90
2017-09-01T01:59:48.933Z,4.00
2017-09-01T02:00:48.737Z,4.00
2017-09-01T02:01:48.759Z,3.70
2017-09-01T02:02:48.809Z,3.60
2017-09-01T02:03:48.827Z,3.30
2017-09-01T02:04:48.864Z,3.40
2017-09-01T02:05:48.918Z,3.20
2017-09-01T02:06:49.254Z,3.30
2017-09-01T02:07:48.987Z,3.50
2017-09-01T02:08:49.009Z,3.90
2017-09-01T02:09:49.045Z,3.40
2017-09-01T02:10:49.080Z,3.40
2017-09-01T02:11:49.133Z,3.50
2017-09-01T02:12:49.148Z,3.50
2017-09-01T02:13:49.503Z,3.60
2017-09-01T02:14:49.223Z,3.80
2017-09-01T02:15:49.260Z,3.60
2017-09-01T02:16:49.595Z,3.70
2017-09-01T02:17:49.340Z,3.30
2017-09-01T02:18:49.367Z,3.90
2017-09-01T02:19:49.403Z,3.40
2017-09-01T02:20:49.738Z,3.30
2017-09-01T02:21:49.475Z,3.60
2017-09-01T02:22:49.711Z,3.70
2017-09-01T02:23:49.548Z,3.90
2017-09-01T02:24:49.605Z,3.50
2017-09-01T02:25:49.615Z,3.50
2017-09-01T02:26:49.650Z,3.20
2017-09-01T02:27:49.986Z,3.50
2017-09-01T02:28:49.764Z,3.50
2017-09-01T02:29:49.783Z,3.40
2017-09-01T02:30:49.793Z,3.50
2017-09-01T02:31:49.870Z,3.50
2017-09-01T02:32:49.901Z,3.70
2017-09-01T02:33:49.920Z,4.00
2017-09-01T02:34:50.235Z,3.70
2017-09-01T02:35:50.001Z,3.70
2017-09-01T02:36:50.016Z,3.60
2017-09-01T02:37:50.062Z,3.60
2017-09-01T02:38:50.100Z,3.70
2017-09-01T02:39:50.116Z,3.40
2017-09-01T02:40:50.354Z,3.60
2017-09-01T02:41:50.492Z,3.20
2017-09-01T02:42:50.242Z,3.70
2017-09-01T02:43:50.262Z,4.10
2017-09-01T02:44:50.299Z,3.70
2017-09-01T02:45:50.332Z,3.50
2017-09-01T02:46:50.371Z,3.50
2017-09-01T02:47:50.424Z,3.80
2017-09-01T02:48:50.764Z,3.30
2017-09-01T02:49:50.480Z,3.50
2017-09-01T02:50:50.529Z,3.40
2017-09-01T02:51:50.586Z,3.60
2017-09-01T02:52:50.582Z,3.10
2017-09-01T02:53:50.690Z,3.50
2017-09-01T02:54:50.909Z,3.30
2017-09-01T02:55:50.704Z,3.20
2017-09-01T02:56:50.725Z,3.40
2017-09-01T02:57:50.810Z,3.70
2017-09-01T02:58:50.815Z,3.50
2017-09-01T02:59:50.855Z,3.40
2017-09-01T03:00:51.235Z,3.50
2017-09-01T03:01:50.928Z,3.00
2017-09-01T03:02:50.945Z,3.60
2017-09-01T03:03:51.028Z,3.60
2017-09-01T03:04:51.026Z,3.80
2017-09-01T03:05:51.083Z,3.80
2017-09-01T03:06:51.354Z,3.10
2017-09-01T03:07:51.132Z,3.40
2017-09-01T03:08:51.163Z,3.30
2017-09-01T03:09:51.310Z,3.30
2017-09-01T03:10:51.223Z,3.40
2017-09-01T03:11:51.277Z,3.60
2017-09-01T03:12:51.617Z,3.60
2017-09-01T03:13:51.329Z,3.30
2017-09-01T03:14:51.386Z,3.80
2017-09-01T03:15:51.424Z,3.50
2017-09-01T03:16:51.448Z,3.20
2017-09-01T03:17:51.793Z,3.30
2017-09-01T03:18:51.757Z,3.60
2017-09-01T03:19:51.549Z,3.60
2017-09-01T03:20:51.580Z,3.20
2017-09-01T03:21:51.638Z,3.20
2017-09-01T03:22:51.882Z,3.50
2017-09-01T03:23:51.815Z,3.60
2017-09-01T03:24:52.028Z,3.20
2017-09-01T03:25:51.759Z,3.20
2017-09-01T03:26:51.808Z,3.20
2017-09-01T03:27:51.845Z,3.70
2017-09-01T03:28:51.882Z,3.70
2017-09-01T03:29:51.957Z,3.30
2017-09-01T03:30:52.241Z,3.40
2017-09-01T03:31:51.972Z,3.20
2017-09-01T03:32:52.026Z,3.60
2017-09-01T03:33:52.061Z,3.90
2017-09-01T03:34:52.082Z,3.50
2017-09-01T03:35:52.360Z,3.40
2017-09-01T03:36:52.403Z,3.30
2017-09-01T03:37:52.203Z,3.10
2017-09-01T03:38:52.226Z,3.40
2017-09-01T03:39:52.259Z,3.30
2017-09-01T03:40:52.310Z,3.40
2017-09-01T03:41:52.747Z,3.30
2017-09-01T03:42:52.631Z,3.40
2017-09-01T03:43:52.412Z,3.30
2017-09-01T03:44:52.452Z,3.60
2017-09-01T03:45:52.495Z,3.90
2017-09-01T03:46:52.523Z,3.40
2017-09-01T03:47:52.610Z,3.30
2017-09-01T03:48:52.877Z,3.50
2017-09-01T03:49:52.615Z,3.50
2017-09-01T03:50:52.647Z,3.60
2017-09-01T03:51:52.710Z,3.60
2017-09-01T03:52:52.722Z,3.70
2017-09-01T03:53:52.863Z,3.60
2017-09-01T03:54:53.114Z,3.50
2017-09-01T03:55:52.843Z,3.80
2017-09-01T03:56:52.907Z,3.20
2017-09-01T03:57:52.909Z,3.60
2017-09-01T03:58:52.930Z,3.40
2017-09-01T03:59:53.089Z,3.90
2017-09-01T04:00:53.277Z,3.60
2017-09-01T04:01:53.065Z,3.50
2017-09-01T04:02:53.080Z,3.30
2017-09-01T04:03:53.183Z,3.30
2017-09-01T04:04:53.151Z,3.40
2017-09-01T04:05:53.642Z,3.50
2017-09-01T04:06:53.468Z,3.80
2017-09-01T04:07:53.269Z,3.70
2017-09-01T04:08:53.310Z,3.30
2017-09-01T04:09:53.360Z,3.90
2017-09-01T04:10:53.361Z,4.10
2017-09-01T04:11:53.429Z,4.10
2017-09-01T04:12:53.681Z,3.50
2017-09-01T04:13:53.483Z,3.90
2017-09-01T04:14:53.519Z,3.90
2017-09-01T04:15:53.555Z,3.40
2017-09-01T04:16:53.589Z,3.40
2017-09-01T04:17:53.625Z,3.10
2017-09-01T04:18:53.680Z,3.80
2017-09-01T04:19:53.995Z,3.90
2017-09-01T04:20:53.718Z,3.60
2017-09-01T04:21:53.769Z,3.60
2017-09-01T04:22:53.786Z,3.30
2017-09-01T04:23:53.823Z,3.60
2017-09-01T04:24:53.862Z,4.00
2017-09-01T04:25:53.961Z,3.40
2017-09-01T04:26:54.193Z,3.60
2017-09-01T04:27:53.962Z,3.70
2017-09-01T04:28:54.017Z,3.20
2017-09-01T04:29:54.035Z,4.20
2017-09-01T04:30:54.115Z,3.40
2017-09-01T04:31:54.120Z,4.10
2017-09-01T04:32:54.165Z,3.60
2017-09-01T04:33:54.504Z,3.80
2017-09-01T04:34:54.234Z,3.50
2017-09-01T04:35:54.249Z,3.70
2017-09-01T04:36:54.301Z,3.50
2017-09-01T04:37:54.329Z,3.50
2017-09-01T04:38:54.371Z,3.70
2017-09-01T04:39:54.470Z,3.90
2017-09-01T04:40:54.673Z,3.70
2017-09-01T04:41:54.477Z,3.50
2017-09-01T04:42:54.498Z,3.60
2017-09-01T04:43:54.536Z,4.30
2017-09-01T04:44:54.586Z,3.60
2017-09-01T04:45:54.616Z,3.80
2017-09-01T04:46:54.645Z,3.60
2017-09-01T04:47:54.937Z,3.60
2017-09-01T04:48:54.723Z,3.70
2017-09-01T04:49:54.767Z,3.30
2017-09-01T04:50:54.795Z,3.40
2017-09-01T04:51:54.883Z,3.40
2017-09-01T04:52:54.864Z,3.40
2017-09-01T04:53:54.901Z,3.50
2017-09-01T04:54:55.239Z,3.60
2017-09-01T04:55:54.962Z,4.10
2017-09-01T04:56:54.988Z,3.70
2017-09-01T04:57:55.295Z,4.40
2017-09-01T04:58:55.092Z,3.30
2017-09-01T04:59:55.095Z,3.70
2017-09-01T05:00:55.151Z,3.50
2017-09-01T05:01:55.418Z,3.50
2017-09-01T05:02:55.219Z,3.60
2017-09-01T05:03:55.441Z,3.30
2017-09-01T05:04:55.272Z,3.80
2017-09-01T05:05:55.310Z,3.50
2017-09-01T05:06:55.359Z,3.60
2017-09-01T05:07:55.377Z,3.80
2017-09-01T05:08:55.668Z,3.60
2017-09-01T05:09:55.522Z,3.80
2017-09-01T05:10:55.503Z,3.70
2017-09-01T05:11:55.522Z,4.00
2017-09-01T05:12:55.607Z,4.10
2017-09-01T05:13:55.597Z,3.70
2017-09-01T05:14:55.630Z,3.70
2017-09-01T05:15:56.228Z,3.60
2017-09-01T05:16:55.704Z,3.90
2017-09-01T05:17:55.748Z,3.70
2017-09-01T05:18:55.768Z,3.60
2017-09-01T05:19:55.806Z,3.40
2017-09-01T05:20:55.859Z,3.90
2017-09-01T05:21:55.877Z,3.20
2017-09-01T05:22:56.212Z,3.30
2017-09-01T05:23:55.943Z,3.60
2017-09-01T05:24:55.982Z,4.10
2017-09-01T05:25:56.034Z,3.60
2017-09-01T05:26:56.067Z,3.80
2017-09-01T05:27:56.112Z,3.50
2017-09-01T05:28:56.120Z,3.50
2017-09-01T05:29:56.456Z,4.00
2017-09-01T05:30:56.262Z,3.60
2017-09-01T05:31:56.242Z,3.50
2017-09-01T05:32:56.265Z,3.90
2017-09-01T05:33:56.317Z,3.10
2017-09-01T05:34:56.406Z,3.40
2017-09-01T05:35:56.388Z,3.50
2017-09-01T05:36:56.860Z,3.30
2017-09-01T05:37:56.448Z,3.50
2017-09-01T05:38:56.492Z,3.50
2017-09-01T05:39:56.726Z,3.80
2017-09-01T05:40:56.568Z,3.80
2017-09-01T05:41:56.613Z,3.80
2017-09-01T05:42:57.360Z,3.50
2017-09-01T05:43:56.667Z,3.20
2017-09-01T05:44:56.705Z,3.50
2017-09-01T05:45:56.736Z,3.10
2017-09-01T05:46:56.756Z,3.80
2017-09-01T05:47:56.798Z,3.70
2017-09-01T05:48:57.136Z,3.70
2017-09-01T05:49:56.884Z,3.30
2017-09-01T05:50:56.901Z,3.30
2017-09-01T05:51:56.956Z,3.20
2017-09-01T05:52:56.988Z,3.50
2017-09-01T05:53:57.025Z,3.40
2017-09-01T05:54:57.646Z,3.50
2017-09-01T05:55:57.079Z,3.20
2017-09-01T05:56:57.131Z,3.30
2017-09-01T05:57:57.165Z,3.30
2017-09-01T05:58:57.201Z,3.20
2017-09-01T05:59:57.237Z,3.10
2017-09-01T06:00:57.605Z,3.20
2017-09-01T06:01:57.291Z,3.40
2017-09-01T06:02:57.347Z,3.30
2017-09-01T06:03:57.380Z,3.30
2017-09-01T06:04:57.397Z,3.30
2017-09-01T06:05:57.438Z,3.30
2017-09-01T06:06:57.785Z,3.10
2017-09-01T06:07:57.520Z,3.70
2017-09-01T06:08:57.601Z,2.80
2017-09-01T06:09:57.592Z,3.30
2017-09-01T06:10:57.614Z,3.90
2017-09-01T06:11:57.666Z,3.30
2017-09-01T06:12:57.932Z,2.90
2017-09-01T06:13:57.735Z,3.30
2017-09-01T06:14:57.753Z,3.10
2017-09-01T06:15:57.789Z,3.20
2017-09-01T06:16:57.829Z,3.60
2017-09-01T06:17:57.878Z,3.30
2017-09-01T06:18:58.183Z,3.20
2017-09-01T06:19:57.944Z,3.40
2017-09-01T06:20:58.137Z,3.40
2017-09-01T06:21:58.024Z,3.30
2017-09-01T06:22:58.048Z,3.20
2017-09-01T06:23:58.089Z,3.10
2017-09-01T06:24:58.379Z,2.90
2017-09-01T06:25:58.159Z,3.20
2017-09-01T06:26:58.207Z,3.10
2017-09-01T06:27:58.233Z,3.30
2017-09-01T06:28:58.273Z,3.40
2017-09-01T06:29:58.288Z,3.10
2017-09-01T06:30:58.578Z,2.70
2017-09-01T06:31:58.376Z,2.90
2017-09-01T06:32:58.521Z,2.80
2017-09-01T06:33:58.444Z,3.50
2017-09-01T06:34:58.502Z,3.30
2017-09-01T06:35:58.505Z,3.30
2017-09-01T06:36:58.851Z,3.60
2017-09-01T06:37:58.595Z,3.50
2017-09-01T06:38:58.858Z,3.50
2017-09-01T06:39:58.653Z,3.30
2017-09-01T06:40:58.700Z,3.50
2017-09-01T06:41:58.718Z,2.90
2017-09-01T06:42:59.055Z,3.10
2017-09-01T06:43:58.807Z,3.20
2017-09-01T06:44:58.845Z,3.10
2017-09-01T06:45:58.890Z,3.10
2017-09-01T06:46:58.992Z,3.00
2017-09-01T06:47:58.988Z,3.80
2017-09-01T06:48:59.270Z,3.20
2017-09-01T06:49:59.135Z,3.00
2017-09-01T06:50:59.062Z,3.00
2017-09-01T06:51:59.086Z,3.40
2017-09-01T06:52:59.127Z,2.80
2017-09-01T06:53:59.172Z,3.10
2017-09-01T06:54:59.445Z,2.90
2017-09-01T06:55:59.377Z,2.80
2017-09-01T06:56:59.261Z,2.80
2017-09-01T06:57:59.294Z,3.00
2017-09-01T06:58:59.342Z,2.80
2017-09-01T06:59:59.400Z,3.10
2017-09-01T07:00:59.555Z,2.70
2017-09-01T07:01:59.743Z,3.20
2017-09-01T07:02:59.497Z,2.80
2017-09-01T07:03:59.532Z,3.00
2017-09-01T07:04:59.550Z,2.70
2017-09-01T07:05:59.588Z,3.00
2017-09-01T07:06:59.670Z,2.90
2017-09-01T07:07:59.658Z,3.30
2017-09-01T07:08:59.943Z,2.80
2017-09-01T07:09:59.885Z,2.80
2017-09-01T07:10:59.790Z,2.90
2017-09-01T07:11:59.803Z,2.70
2017-09-01T07:12:59.861Z,2.60
2017-09-01T07:13:59.875Z,3.10
2017-09-01T07:14:59.939Z,2.80
2017-09-01T07:16:00.207Z,2.80
2017-09-01T07:17:00.016Z,3.20
2017-09-01T07:18:00.066Z,3.00
2017-09-01T07:19:00.233Z,3.00
2017-09-01T07:20:00.091Z,2.90
2017-09-01T07:21:00.134Z,2.80
2017-09-01T07:22:00.209Z,2.90
2017-09-01T07:23:00.468Z,2.70
2017-09-01T07:24:00.249Z,2.70
2017-09-01T07:25:00.274Z,3.00
2017-09-01T07:26:00.317Z,3.10
2017-09-01T07:27:00.366Z,2.80
2017-09-01T07:28:00.381Z,3.30
2017-09-01T07:29:00.423Z,3.00
2017-09-01T07:30:00.812Z,2.90
2017-09-01T07:31:00.488Z,3.00
2017-09-01T07:32:00.546Z,2.60
2017-09-01T07:33:00.586Z,2.80
2017-09-01T07:34:00.619Z,2.90
2017-09-01T07:35:00.655Z,3.40
2017-09-01T07:36:00.761Z,3.00
2017-09-01T07:37:00.980Z,2.90
2017-09-01T07:38:00.783Z,2.20
2017-09-01T07:39:00.806Z,3.00
2017-09-01T07:40:00.839Z,2.60
2017-09-01T07:41:00.857Z,2.60
2017-09-01T07:42:00.921Z,2.60
2017-09-01T07:43:00.928Z,2.40
2017-09-01T07:44:01.238Z,2.60
2017-09-01T07:45:01.030Z,2.40
2017-09-01T07:46:01.039Z,2.40
2017-09-01T07:47:01.081Z,2.30
2017-09-01T07:48:01.169Z,2.80
2017-09-01T07:49:01.156Z,2.60
2017-09-01T07:50:01.191Z,2.80
2017-09-01T07:51:01.491Z,2.50
2017-09-01T07:52:01.283Z,2.60
2017-09-01T07:53:01.321Z,2.60
2017-09-01T07:54:01.337Z,2.50
2017-09-01T07:55:01.370Z,2.80
2017-09-01T07:56:01.411Z,2.40
2017-09-01T07:57:01.545Z,2.70
2017-09-01T07:58:01.739Z,2.60
2017-09-01T07:59:01.539Z,2.50
2017-09-01T08:00:01.561Z,2.80
2017-09-01T08:01:01.595Z,2.40
2017-09-01T08:02:01.634Z,2.80
2017-09-01T08:03:01.838Z,2.50
2017-09-01T08:04:01.722Z,2.70
2017-09-01T08:05:02.024Z,3.00
2017-09-01T08:06:01.789Z,2.70
2017-09-01T08:07:01.823Z,2.40
2017-09-01T08:08:01.857Z,2.90
2017-09-01T08:09:01.920Z,2.70
2017-09-01T08:10:01.941Z,2.60
2017-09-01T08:11:01.964Z,2.40
2017-09-01T08:12:02.306Z,2.80
2017-09-01T08:13:02.043Z,2.30
2017-09-01T08:14:02.091Z,2.50
2017-09-01T08:15:02.114Z,2.30
2017-09-01T08:16:02.160Z,2.40
2017-09-01T08:17:02.193Z,2.50
2017-09-01T08:18:02.246Z,2.20
2017-09-01T08:19:02.521Z,2.40
2017-09-01T08:20:02.323Z,2.40
2017-09-01T08:21:02.339Z,2.40
2017-09-01T08:22:02.537Z,2.30
2017-09-01T08:23:02.434Z,2.20
2017-09-01T08:24:02.474Z,2.40
2017-09-01T08:25:02.521Z,2.40
2017-09-01T08:26:02.527Z,2.70
2017-09-01T08:27:02.566Z,2.40
2017-09-01T08:28:02.604Z,2.10
2017-09-01T08:29:02.657Z,2.50
2017-09-01T08:30:02.703Z,2.20
2017-09-01T08:31:02.731Z,2.40
2017-09-01T08:32:03.073Z,2.30
2017-09-01T08:33:02.810Z,2.10
2017-09-01T08:34:02.860Z,2.40
2017-09-01T08:35:02.881Z,2.50
2017-09-01T08:36:02.904Z,2.30
2017-09-01T08:37:02.948Z,2.50
2017-09-01T08:38:03.598Z,2.20
2017-09-01T08:39:03.079Z,2.40
2017-09-01T08:40:03.056Z,2.10
2017-09-01T08:41:03.109Z,2.00
2017-09-01T08:42:03.151Z,2.20
2017-09-01T08:43:03.209Z,2.30
2017-09-01T08:44:03.529Z,2.40
2017-09-01T08:45:03.344Z,2.20
2017-09-01T08:46:03.278Z,2.50
2017-09-01T08:47:03.320Z,2.50
2017-09-01T08:48:03.356Z,2.30
2017-09-01T08:49:03.415Z,2.10
2017-09-01T08:50:03.472Z,2.10
2017-09-01T08:51:03.739Z,2.20
2017-09-01T08:52:03.528Z,2.30
2017-09-01T08:53:03.544Z,2.20
2017-09-01T08:54:03.614Z,2.40
2017-09-01T08:55:03.638Z,2.00
2017-09-01T08:56:03.678Z,2.20
2017-09-01T08:57:03.966Z,2.30
2017-09-01T08:58:03.730Z,2.10
2017-09-01T08:59:03.769Z,2.10
2017-09-01T09:00:03.816Z,2.40
2017-09-01T09:01:03.844Z,2.30
2017-09-01T09:02:04.002Z,2.40
2017-09-01T09:03:04.176Z,2.10
2017-09-01T09:04:03.978Z,2.40
2017-09-01T09:05:04.010Z,2.20
2017-09-01T09:06:04.065Z,2.10
2017-09-01T09:07:04.131Z,2.00
2017-09-01T09:08:04.108Z,2.30
2017-09-01T09:09:04.466Z,2.10
2017-09-01T09:10:04.204Z,2.10
2017-09-01T09:11:04.230Z,2.30
2017-09-01T09:12:04.294Z,2.10
2017-09-01T09:13:04.304Z,2.20
2017-09-01T09:14:04.353Z,2.30
2017-09-01T09:15:04.641Z,2.00
2017-09-01T09:16:04.414Z,2.20
2017-09-01T09:17:04.450Z,2.40
2017-09-01T09:18:04.617Z,2.70
2017-09-01T09:19:04.525Z,2.40
2017-09-01T09:20:04.623Z,2.10
2017-09-01T09:21:04.880Z,2.40
2017-09-01T09:22:04.642Z,2.10
2017-09-01T09:23:04.698Z,2.20
2017-09-01T09:24:04.928Z,2.30
2017-09-01T09:25:04.758Z,2.30
2017-09-01T09:26:04.789Z,2.30
2017-09-01T09:27:05.175Z,1.90
2017-09-01T09:28:04.881Z,2.00
2017-09-01T09:29:04.913Z,2.50
2017-09-01T09:30:04.959Z,2.00
2017-09-01T09:31:04.995Z,2.20
2017-09-01T09:32:05.021Z,2.20
2017-09-01T09:33:05.371Z,2.40
2017-09-01T09:34:05.110Z,2.10
2017-09-01T09:35:05.127Z,2.50
2017-09-01T09:36:05.489Z,2.20
2017-09-01T09:37:05.222Z,2.10
2017-09-01T09:38:05.276Z,2.20
2017-09-01T09:39:05.553Z,2.30
2017-09-01T09:40:05.315Z,2.20
2017-09-01T09:41:05.354Z,2.10
2017-09-01T09:42:05.397Z,2.50
2017-09-01T09:43:05.490Z,2.40
2017-09-01T09:44:05.469Z,1.80
2017-09-01T09:45:05.769Z,2.10
2017-09-01T09:46:05.553Z,2.20
2017-09-01T09:47:05.588Z,1.90
2017-09-01T09:48:05.681Z,2.30
2017-09-01T09:49:05.693Z,2.30
2017-09-01T09:50:05.695Z,2.20
2017-09-01T09:51:05.746Z,2.30
2017-09-01T09:52:06.050Z,2.10
2017-09-01T09:53:05.809Z,1.90
2017-09-01T09:54:05.916Z,1.90
2017-09-01T09:55:05.881Z,2.10
2017-09-01T09:56:05.938Z,1.90
2017-09-01T09:57:05.976Z,1.90
2017-09-01T09:58:06.036Z,2.00
2017-09-01T09:59:06.049Z,2.30
2017-09-01T10:00:06.119Z,2.10
2017-09-01T10:01:06.127Z,2.00
2017-09-01T10:02:06.150Z,2.20
2017-09-01T10:03:06.205Z,2.40
2017-09-01T10:04:06.397Z,1.80
2017-09-01T10:05:06.528Z,2.10
2017-09-01T10:06:06.352Z,2.40
2017-09-01T10:07:06.336Z,1.90
2017-09-01T10:08:06.389Z,2.00
2017-09-01T10:09:06.460Z,1.90
2017-09-01T10:10:06.470Z,2.00
2017-09-01T10:11:06.524Z,1.80
2017-09-01T10:12:06.942Z,1.70
2017-09-01T10:13:06.562Z,2.00
2017-09-01T10:14:06.620Z,1.80
2017-09-01T10:15:06.642Z,1.80
2017-09-01T10:16:06.682Z,2.10
2017-09-01T10:17:06.732Z,2.10
2017-09-01T10:18:06.797Z,2.10
2017-09-01T10:19:08.096Z,1.90
2017-09-01T10:20:06.852Z,2.00
2017-09-01T10:21:06.879Z,1.80
2017-09-01T10:22:07.103Z,2.10
2017-09-01T10:23:06.944Z,1.80
2017-09-01T10:24:07.011Z,2.00
2017-09-01T10:25:07.053Z,2.30
2017-09-01T10:26:07.393Z,2.20
2017-09-01T10:27:07.094Z,1.80
2017-09-01T10:28:07.151Z,1.90
2017-09-01T10:29:07.167Z,1.90
2017-09-01T10:30:07.217Z,1.80
2017-09-01T10:31:07.269Z,1.90
2017-09-01T10:32:07.343Z,2.00
2017-09-01T10:33:07.569Z,1.80
2017-09-01T10:34:07.379Z,1.90
2017-09-01T10:35:07.411Z,1.70
2017-09-01T10:36:07.487Z,1.90
2017-09-01T10:37:07.480Z,1.80
2017-09-01T10:38:07.514Z,2.00
2017-09-01T10:39:07.567Z,1.90
2017-09-01T10:40:07.838Z,2.10
2017-09-01T10:41:07.642Z,2.00
2017-09-01T10:42:07.686Z,1.80
2017-09-01T10:43:07.725Z,1.90
2017-09-01T10:44:07.764Z,2.10
2017-09-01T10:45:07.803Z,2.00
2017-09-01T10:46:07.822Z,2.00
2017-09-01T10:47:08.131Z,2.10
2017-09-01T10:48:07.908Z,2.00
2017-09-01T10:49:07.945Z,2.00
2017-09-01T10:50:07.970Z,2.00
2017-09-01T10:51:08.097Z,2.10
2017-09-01T10:52:08.064Z,1.90
2017-09-01T10:53:08.093Z,2.10
2017-09-01T10:54:08.437Z,1.90
2017-09-01T10:55:08.190Z,1.80
2017-09-01T10:56:08.214Z,2.00
2017-09-01T10:57:08.236Z,1.80
2017-09-01T10:58:08.290Z,1.80
2017-09-01T10:59:08.324Z,1.90
2017-09-01T11:00:08.346Z,2.00
2017-09-01T11:01:08.657Z,1.80
2017-09-01T11:02:08.595Z,1.80
2017-09-01T11:03:08.462Z,2.10
2017-09-01T11:04:08.513Z,1.80
2017-09-01T11:05:08.546Z,1.80
2017-09-01T11:06:08.583Z,2.00
2017-09-01T11:07:08.635Z,2.00
2017-09-01T11:08:08.960Z,1.90
2017-09-01T11:09:08.691Z,1.80
2017-09-01T11:10:08.759Z,1.80
2017-09-01T11:11:08.782Z,2.00
2017-09-01T11:12:08.825Z,2.10
2017-09-01T11:13:08.845Z,1.60
2017-09-01T11:14:08.879Z,1.90
2017-09-01T11:15:09.174Z,1.90
2017-09-01T11:16:08.978Z,1.90
2017-09-01T11:17:09.017Z,2.10
2017-09-01T11:18:09.250Z,1.80
2017-09-01T11:19:09.091Z,1.70
2017-09-01T11:20:09.113Z,1.90
2017-09-01T11:21:09.471Z,1.80
2017-09-01T11:22:09.187Z,1.70
2017-09-01T11:23:09.289Z,1.60
2017-09-01T11:24:09.591Z,1.70
2017-09-01T11:25:09.301Z,1.70
2017-09-01T11:26:09.354Z,1.60
2017-09-01T11:27:09.645Z,1.80
2017-09-01T11:28:09.411Z,1.80
2017-09-01T11:29:09.521Z,1.70
2017-09-01T11:30:09.519Z,1.90
2017-09-01T11:31:09.555Z,1.70
2017-09-01T11:32:09.587Z,1.90
2017-09-01T11:33:09.870Z,1.80
2017-09-01T11:34:09.646Z,2.00
2017-09-01T11:35:09.696Z,1.80
2017-09-01T11:36:09.749Z,1.80
2017-09-01T11:37:09.772Z,1.90
2017-09-01T11:38:09.795Z,1.80
2017-09-01T11:39:10.134Z,1.70
2017-09-01T11:40:09.871Z,2.00
2017-09-01T11:41:09.910Z,1.80
2017-09-01T11:42:09.948Z,1.80
2017-09-01T11:43:10.007Z,1.90
2017-09-01T11:44:10.052Z,1.80
2017-09-01T11:45:10.386Z,1.80
2017-09-01T11:46:10.118Z,1.90
2017-09-01T11:47:10.163Z,1.70
2017-09-01T11:48:10.195Z,1.80
2017-09-01T11:49:10.265Z,1.90
2017-09-01T11:50:10.257Z,1.60
2017-09-01T11:51:10.684Z,1.70
2017-09-01T11:52:10.446Z,1.80
2017-09-01T11:53:10.389Z,2.10
2017-09-01T11:54:10.422Z,1.90
2017-09-01T11:55:10.442Z,2.00
2017-09-01T11:56:10.495Z,1.90
2017-09-01T11:57:11.037Z,1.90
2017-09-01T11:58:10.576Z,1.60
2017-09-01T11:59:10.617Z,1.70
2017-09-01T12:00:10.649Z,1.80
2017-09-01T12:01:10.670Z,1.60
2017-09-01T12:02:10.749Z,1.80
2017-09-01T12:03:11.061Z,1.70
2017-09-01T12:04:10.789Z,1.70
2017-09-01T12:05:10.850Z,1.70
2017-09-01T12:06:10.868Z,1.70
2017-09-01T12:07:10.899Z,1.70
2017-09-01T12:08:10.954Z,1.90
2017-09-01T12:09:11.505Z,1.90
2017-09-01T12:10:11.015Z,1.80
2017-09-01T12:11:11.071Z,1.60
2017-09-01T12:12:11.113Z,1.60
2017-09-01T12:13:11.148Z,1.50
2017-09-01T12:14:11.198Z,1.70
2017-09-01T12:15:11.659Z,1.90
2017-09-01T12:16:11.268Z,1.80
2017-09-01T12:17:11.835Z,1.70
2017-09-01T12:18:11.338Z,1.70
2017-09-01T12:19:11.372Z,1.60
2017-09-01T12:20:11.414Z,1.70
2017-09-01T12:21:11.877Z,1.80
2017-09-01T12:22:11.481Z,1.60
2017-09-01T12:23:11.528Z,1.50
2017-09-01T12:24:11.572Z,1.80
2017-09-01T12:25:11.624Z,1.60
2017-09-01T12:26:11.629Z,1.80
2017-09-01T12:27:12.050Z,1.80
2017-09-01T12:28:11.725Z,1.70
2017-09-01T12:29:11.742Z,1.40
2017-09-01T12:30:11.782Z,1.70
2017-09-01T12:31:11.846Z,1.90
2017-09-01T12:33:12.396Z,1.80
2017-09-01T12:34:11.936Z,1.70
2017-09-01T12:35:11.996Z,1.60
2017-09-01T12:36:12.009Z,2.00
2017-09-01T12:37:12.065Z,1.50
2017-09-01T12:38:12.085Z,1.70
2017-09-01T12:39:12.425Z,1.90
2017-09-01T12:40:12.192Z,1.60
2017-09-01T12:41:12.232Z,1.80
2017-09-01T12:42:12.255Z,1.80
2017-09-01T12:43:12.294Z,1.90
2017-09-01T12:44:12.327Z,1.70
2017-09-01T12:45:12.437Z,1.70
2017-09-01T12:46:12.394Z,1.90
2017-09-01T12:47:12.431Z,1.80
2017-09-01T12:48:12.487Z,1.90
2017-09-01T12:49:12.509Z,1.70
2017-09-01T12:50:12.551Z,1.60
2017-09-01T12:51:12.705Z,2.00
2017-09-01T12:52:12.634Z,1.90
2017-09-01T12:53:12.684Z,1.80
2017-09-01T12:54:12.708Z,1.90
2017-09-01T12:55:12.740Z,1.80
2017-09-01T12:56:12.799Z,1.80
2017-09-01T12:57:12.820Z,1.50
2017-09-01T12:58:13.160Z,1.60
2017-09-01T12:59:12.893Z,1.90
2017-09-01T13:00:12.929Z,1.70
2017-09-01T13:01:12.992Z,1.90
2017-09-01T13:02:13.013Z,1.70
2017-09-01T13:03:13.064Z,1.60
2017-09-01T13:04:13.122Z,1.80
2017-09-01T13:05:13.424Z,1.60
2017-09-01T13:06:13.179Z,1.60
2017-09-01T13:07:13.222Z,1.70
2017-09-01T13:08:13.262Z,1.60
2017-09-01T13:09:13.279Z,1.50
2017-09-01T13:10:13.335Z,1.70
2017-09-01T13:11:13.357Z,1.70
2017-09-01T13:12:13.695Z,1.90
2017-09-01T13:13:13.439Z,1.50
2017-09-01T13:14:13.528Z,1.80
2017-09-01T13:15:13.512Z,1.60
2017-09-01T13:16:13.552Z,1.50
2017-09-01T13:17:13.614Z,1.90
2017-09-01T13:18:13.650Z,1.60
2017-09-01T13:19:13.928Z,1.70
2017-09-01T13:20:13.830Z,1.80